Pensacola, FL (32501)

7:33 AM CDT on May 24, 2017 (GMT -0500)
| | Change Station
Active Advisory: Coastal Hazard Statement Active Notice: Coastal Hazard Statement

Elev -9999 ft 0.00 °N, 0.00 °E | Updated 10 minutes ago

Partly Cloudy
Partly Cloudy
°F
Feels Like °F
N
Wind Variable Wind from North
Gusts mph

Today
High -- | Low -- °F
--% Chance of Precip.
Yesterday
High -- | Low -- °F
Precip. -- in
Pressure 29.61 in
Visibility 10.0 miles
Clouds Scattered Clouds 2500 ft
Dew Point Not available.
Humidity Not available.
Rainfall --
Snow Depth Not available.
5:49 AM 7:42 PM
Waning Crescent, 3% visible
METAR KPNS 241153Z COR 00000KT 10SM SCT025 22/20 A2961 RMK AO2 SLP026 60066 70066 T02220200 10250 20211 55020
Pressure 29.61 in
Visibility 10.0 miles
Clouds Scattered Clouds 2500 ft
Dew Point Not available.
Humidity Not available.
Rainfall --
Snow Depth Not available.
5:49 AM 7:42 PM
Waning Crescent, 3% visible
METAR KPNS 241153Z COR 00000KT 10SM SCT025 22/20 A2961 RMK AO2 SLP026 60066 70066 T02220200 10250 20211 55020

Get Your Daily Forecast Email!

Thanks for signing up!

Be on the lookout for a verification email in your inbox.

You'll start receiving severe weather alerts in your inbox..

×

10-Day Weather Forecast

Almanac

Astronomy

May. 24, 2017 Rise Set
Actual Time
Civil Twilight
Nautical Twilight
Astronomical Twilight
Moon
Length of Visible Light
Length of Day
Tomorrow will be .
, % of the Moon is Illuminated

Today's Extremes

State Highs State Lows

Community

WunderPhotos

Category 6

Welcome to Category 6. This is the collective home for Weather Underground's featured writeups by Dr. Jeff Masters (right), Bob Henson (left), Chris Burt, and other regular contributors.

Nearby

Air Quality

  Air Quality AQ Index Pollutant
Not available.

Snow Depth

Station Depth Elevation

Earthquake Activity

City Distance Mag. Time & Date
Minimum magnitude displayed is 2.5.

Coastal Water Temperatures

Place Temperature

Stations

Nearby Weather Stations

Station Location Temp. Windchill Dew Point Humidity Wind Precip. Elev Updated Type
                   

Watches & Warnings

Coastal Hazard Statement
Issued: 5:59 AM CDT May. 24, 2017 – National Weather Service

... High rip current risk remains in effect into this evening...

* surf... 2 to 5 feet.

* Timing... through today.

* Impacts... frequent life-threatening rip currents are expected.
The surf is dangerous for all levels of swimmers.

Precautionary/preparedness actions...

There is a high risk of rip currents. Rip currents are life-
threatening to anyone entering the surf. Swim near a lifeguard.
If caught in a rip current remain calm. Don't fight the current.
Swim in a direction following the shoreline. If unable to escape,
face the shore and call or wave for help. If tired, float or
tread water until out of the rip current.